sensor_id;sensor_type;location;lat;lon;timestamp;P1;durP1;ratioP1;P2;durP2;ratioP2
16822;SDS011;8528;49.976;11.858;2024-02-26T00:02:16;4.27;;;2.80;;
16822;SDS011;8528;49.976;11.858;2024-02-26T00:04:43;3.83;;;2.83;;
16822;SDS011;8528;49.976;11.858;2024-02-26T00:07:11;5.03;;;3.23;;
16822;SDS011;8528;49.976;11.858;2024-02-26T00:09:37;4.47;;;2.90;;
16822;SDS011;8528;49.976;11.858;2024-02-26T00:12:05;4.47;;;3.00;;
16822;SDS011;8528;49.976;11.858;2024-02-26T00:14:32;5.03;;;2.97;;
16822;SDS011;8528;49.976;11.858;2024-02-26T00:16:59;5.43;;;3.20;;
16822;SDS011;8528;49.976;11.858;2024-02-26T00:19:26;3.90;;;3.03;;
16822;SDS011;8528;49.976;11.858;2024-02-26T00:21:55;4.43;;;3.23;;
16822;SDS011;8528;49.976;11.858;2024-02-26T00:24:22;3.80;;;3.23;;
16822;SDS011;8528;49.976;11.858;2024-02-26T00:26:49;5.77;;;3.07;;
16822;SDS011;8528;49.976;11.858;2024-02-26T00:29:20;4.60;;;3.00;;
16822;SDS011;8528;49.976;11.858;2024-02-26T00:31:48;5.17;;;3.47;;
16822;SDS011;8528;49.976;11.858;2024-02-26T00:34:15;5.30;;;3.30;;
16822;SDS011;8528;49.976;11.858;2024-02-26T00:36:42;6.53;;;3.83;;
16822;SDS011;8528;49.976;11.858;2024-02-26T00:39:09;5.23;;;3.33;;
16822;SDS011;8528;49.976;11.858;2024-02-26T00:41:38;6.00;;;4.17;;
16822;SDS011;8528;49.976;11.858;2024-02-26T00:44:10;4.60;;;3.40;;
16822;SDS011;8528;49.976;11.858;2024-02-26T00:46:37;6.10;;;3.80;;
16822;SDS011;8528;49.976;11.858;2024-02-26T00:49:04;4.63;;;3.73;;
16822;SDS011;8528;49.976;11.858;2024-02-26T00:51:31;6.37;;;3.73;;
16822;SDS011;8528;49.976;11.858;2024-02-26T00:53:59;5.30;;;3.30;;
16822;SDS011;8528;49.976;11.858;2024-02-26T00:56:26;5.53;;;3.60;;
16822;SDS011;8528;49.976;11.858;2024-02-26T00:58:53;5.43;;;3.67;;
16822;SDS011;8528;49.976;11.858;2024-02-26T01:01:20;4.53;;;3.30;;
16822;SDS011;8528;49.976;11.858;2024-02-26T01:03:47;7.63;;;3.80;;
16822;SDS011;8528;49.976;11.858;2024-02-26T01:06:14;4.67;;;3.20;;
16822;SDS011;8528;49.976;11.858;2024-02-26T01:08:42;5.23;;;3.77;;
16822;SDS011;8528;49.976;11.858;2024-02-26T01:11:09;6.80;;;4.10;;
16822;SDS011;8528;49.976;11.858;2024-02-26T01:13:36;6.17;;;4.20;;
16822;SDS011;8528;49.976;11.858;2024-02-26T01:16:03;5.70;;;3.63;;
16822;SDS011;8528;49.976;11.858;2024-02-26T01:18:30;6.20;;;4.10;;
16822;SDS011;8528;49.976;11.858;2024-02-26T01:20:57;6.00;;;4.00;;
16822;SDS011;8528;49.976;11.858;2024-02-26T01:23:24;7.20;;;3.97;;
16822;SDS011;8528;49.976;11.858;2024-02-26T01:25:51;8.67;;;4.60;;
16822;SDS011;8528;49.976;11.858;2024-02-26T01:28:18;6.93;;;4.57;;
16822;SDS011;8528;49.976;11.858;2024-02-26T01:30:45;7.20;;;4.37;;
16822;SDS011;8528;49.976;11.858;2024-02-26T01:33:12;7.73;;;4.73;;
16822;SDS011;8528;49.976;11.858;2024-02-26T01:35:39;9.63;;;5.80;;
16822;SDS011;8528;49.976;11.858;2024-02-26T01:38:06;12.67;;;8.17;;
16822;SDS011;8528;49.976;11.858;2024-02-26T01:40:33;15.17;;;9.23;;
16822;SDS011;8528;49.976;11.858;2024-02-26T01:43:01;15.63;;;9.03;;
16822;SDS011;8528;49.976;11.858;2024-02-26T01:45:28;14.77;;;8.97;;
16822;SDS011;8528;49.976;11.858;2024-02-26T01:47:55;21.80;;;11.13;;
16822;SDS011;8528;49.976;11.858;2024-02-26T01:50:23;18.27;;;10.50;;
16822;SDS011;8528;49.976;11.858;2024-02-26T01:52:51;18.23;;;9.80;;
16822;SDS011;8528;49.976;11.858;2024-02-26T01:55:19;14.43;;;8.07;;
16822;SDS011;8528;49.976;11.858;2024-02-26T01:57:49;9.17;;;5.67;;
16822;SDS011;8528;49.976;11.858;2024-02-26T02:00:18;10.47;;;5.43;;
16822;SDS011;8528;49.976;11.858;2024-02-26T02:02:47;10.97;;;6.00;;
16822;SDS011;8528;49.976;11.858;2024-02-26T02:05:15;9.80;;;5.33;;
16822;SDS011;8528;49.976;11.858;2024-02-26T02:07:46;10.23;;;5.53;;
16822;SDS011;8528;49.976;11.858;2024-02-26T02:10:18;17.30;;;7.53;;
16822;SDS011;8528;49.976;11.858;2024-02-26T02:12:49;9.93;;;6.07;;
16822;SDS011;8528;49.976;11.858;2024-02-26T02:15:17;15.80;;;6.83;;
16822;SDS011;8528;49.976;11.858;2024-02-26T02:17:44;14.57;;;7.93;;
16822;SDS011;8528;49.976;11.858;2024-02-26T02:20:15;16.50;;;8.30;;
16822;SDS011;8528;49.976;11.858;2024-02-26T02:22:44;25.47;;;10.27;;
16822;SDS011;8528;49.976;11.858;2024-02-26T02:25:12;21.87;;;10.40;;
16822;SDS011;8528;49.976;11.858;2024-02-26T02:27:40;16.83;;;8.47;;
16822;SDS011;8528;49.976;11.858;2024-02-26T02:30:09;28.07;;;10.40;;
16822;SDS011;8528;49.976;11.858;2024-02-26T02:32:37;14.50;;;7.30;;
16822;SDS011;8528;49.976;11.858;2024-02-26T02:35:07;18.07;;;7.97;;
16822;SDS011;8528;49.976;11.858;2024-02-26T02:37:34;17.90;;;7.90;;
16822;SDS011;8528;49.976;11.858;2024-02-26T02:40:01;17.83;;;7.13;;
16822;SDS011;8528;49.976;11.858;2024-02-26T02:42:28;15.50;;;7.63;;
16822;SDS011;8528;49.976;11.858;2024-02-26T02:44:55;22.63;;;8.27;;
16822;SDS011;8528;49.976;11.858;2024-02-26T02:47:23;16.90;;;8.80;;
16822;SDS011;8528;49.976;11.858;2024-02-26T02:49:49;20.83;;;8.37;;
16822;SDS011;8528;49.976;11.858;2024-02-26T02:52:16;17.60;;;8.60;;
16822;SDS011;8528;49.976;11.858;2024-02-26T02:54:43;22.27;;;9.73;;
16822;SDS011;8528;49.976;11.858;2024-02-26T02:57:10;26.80;;;10.70;;
16822;SDS011;8528;49.976;11.858;2024-02-26T02:59:37;27.70;;;10.87;;
16822;SDS011;8528;49.976;11.858;2024-02-26T03:02:06;27.87;;;11.50;;
16822;SDS011;8528;49.976;11.858;2024-02-26T03:04:33;27.17;;;13.10;;
16822;SDS011;8528;49.976;11.858;2024-02-26T03:07:00;30.23;;;13.60;;
16822;SDS011;8528;49.976;11.858;2024-02-26T03:09:28;24.50;;;11.00;;
16822;SDS011;8528;49.976;11.858;2024-02-26T03:11:55;27.13;;;12.90;;
16822;SDS011;8528;49.976;11.858;2024-02-26T03:14:22;32.27;;;12.17;;
16822;SDS011;8528;49.976;11.858;2024-02-26T03:16:49;26.53;;;12.00;;
16822;SDS011;8528;49.976;11.858;2024-02-26T03:19:16;24.90;;;11.93;;
16822;SDS011;8528;49.976;11.858;2024-02-26T03:21:43;25.37;;;12.13;;
16822;SDS011;8528;49.976;11.858;2024-02-26T03:24:10;25.20;;;12.97;;
16822;SDS011;8528;49.976;11.858;2024-02-26T03:26:37;26.67;;;12.53;;
16822;SDS011;8528;49.976;11.858;2024-02-26T03:29:05;26.47;;;12.90;;
16822;SDS011;8528;49.976;11.858;2024-02-26T03:31:31;28.53;;;12.60;;
16822;SDS011;8528;49.976;11.858;2024-02-26T03:33:59;29.37;;;13.07;;
16822;SDS011;8528;49.976;11.858;2024-02-26T03:36:25;25.13;;;12.90;;
16822;SDS011;8528;49.976;11.858;2024-02-26T03:38:53;23.83;;;12.00;;
16822;SDS011;8528;49.976;11.858;2024-02-26T03:41:20;20.00;;;10.87;;
16822;SDS011;8528;49.976;11.858;2024-02-26T03:43:47;23.27;;;12.13;;
16822;SDS011;8528;49.976;11.858;2024-02-26T03:46:14;25.47;;;11.33;;
16822;SDS011;8528;49.976;11.858;2024-02-26T03:48:41;24.97;;;12.17;;
16822;SDS011;8528;49.976;11.858;2024-02-26T03:51:09;30.10;;;13.00;;
16822;SDS011;8528;49.976;11.858;2024-02-26T03:53:36;25.13;;;12.10;;
16822;SDS011;8528;49.976;11.858;2024-02-26T03:56:04;24.23;;;12.73;;
16822;SDS011;8528;49.976;11.858;2024-02-26T03:58:31;22.13;;;12.13;;
16822;SDS011;8528;49.976;11.858;2024-02-26T04:00:59;24.57;;;11.23;;
16822;SDS011;8528;49.976;11.858;2024-02-26T04:03:27;23.03;;;12.03;;
16822;SDS011;8528;49.976;11.858;2024-02-26T04:05:53;29.13;;;13.53;;
16822;SDS011;8528;49.976;11.858;2024-02-26T04:08:21;24.57;;;13.17;;
16822;SDS011;8528;49.976;11.858;2024-02-26T04:10:47;31.57;;;12.83;;
16822;SDS011;8528;49.976;11.858;2024-02-26T04:13:14;29.17;;;12.43;;
16822;SDS011;8528;49.976;11.858;2024-02-26T04:15:41;26.83;;;12.63;;
16822;SDS011;8528;49.976;11.858;2024-02-26T04:18:08;26.13;;;11.93;;
16822;SDS011;8528;49.976;11.858;2024-02-26T04:20:35;31.17;;;13.80;;
16822;SDS011;8528;49.976;11.858;2024-02-26T04:23:02;23.83;;;13.07;;
16822;SDS011;8528;49.976;11.858;2024-02-26T04:25:30;27.60;;;12.67;;
16822;SDS011;8528;49.976;11.858;2024-02-26T04:27:57;23.77;;;11.97;;
16822;SDS011;8528;49.976;11.858;2024-02-26T04:30:23;27.90;;;13.00;;
16822;SDS011;8528;49.976;11.858;2024-02-26T04:32:50;28.10;;;13.27;;
16822;SDS011;8528;49.976;11.858;2024-02-26T04:35:18;28.47;;;13.17;;
16822;SDS011;8528;49.976;11.858;2024-02-26T04:37:44;24.67;;;11.80;;
16822;SDS011;8528;49.976;11.858;2024-02-26T04:40:11;27.77;;;12.37;;
16822;SDS011;8528;49.976;11.858;2024-02-26T04:42:39;25.53;;;13.03;;
16822;SDS011;8528;49.976;11.858;2024-02-26T04:45:06;24.03;;;12.43;;
16822;SDS011;8528;49.976;11.858;2024-02-26T04:47:34;22.37;;;11.63;;
16822;SDS011;8528;49.976;11.858;2024-02-26T04:50:01;25.73;;;11.73;;
16822;SDS011;8528;49.976;11.858;2024-02-26T04:52:29;26.03;;;12.60;;
16822;SDS011;8528;49.976;11.858;2024-02-26T04:54:55;24.83;;;12.43;;
16822;SDS011;8528;49.976;11.858;2024-02-26T04:57:22;29.53;;;12.37;;
16822;SDS011;8528;49.976;11.858;2024-02-26T04:59:49;26.10;;;13.30;;
16822;SDS011;8528;49.976;11.858;2024-02-26T05:02:16;27.83;;;13.10;;
16822;SDS011;8528;49.976;11.858;2024-02-26T05:04:43;28.67;;;13.77;;
16822;SDS011;8528;49.976;11.858;2024-02-26T05:07:10;28.77;;;13.43;;
16822;SDS011;8528;49.976;11.858;2024-02-26T05:09:39;33.00;;;13.47;;
16822;SDS011;8528;49.976;11.858;2024-02-26T05:12:08;25.73;;;12.50;;
16822;SDS011;8528;49.976;11.858;2024-02-26T05:14:35;28.67;;;13.07;;
16822;SDS011;8528;49.976;11.858;2024-02-26T05:17:02;33.67;;;13.93;;
16822;SDS011;8528;49.976;11.858;2024-02-26T05:19:29;23.67;;;12.67;;
16822;SDS011;8528;49.976;11.858;2024-02-26T05:21:56;30.53;;;13.30;;
16822;SDS011;8528;49.976;11.858;2024-02-26T05:24:23;32.20;;;12.77;;
16822;SDS011;8528;49.976;11.858;2024-02-26T05:26:50;24.23;;;12.40;;
16822;SDS011;8528;49.976;11.858;2024-02-26T05:29:17;43.67;;;12.50;;
16822;SDS011;8528;49.976;11.858;2024-02-26T05:31:43;70.33;;;13.20;;
16822;SDS011;8528;49.976;11.858;2024-02-26T05:34:10;26.10;;;12.73;;
16822;SDS011;8528;49.976;11.858;2024-02-26T05:36:37;26.00;;;12.87;;
16822;SDS011;8528;49.976;11.858;2024-02-26T05:39:04;27.97;;;11.57;;
16822;SDS011;8528;49.976;11.858;2024-02-26T05:41:32;22.27;;;11.30;;
16822;SDS011;8528;49.976;11.858;2024-02-26T05:43:59;39.47;;;13.63;;
16822;SDS011;8528;49.976;11.858;2024-02-26T05:46:25;25.67;;;11.50;;
16822;SDS011;8528;49.976;11.858;2024-02-26T05:48:53;24.80;;;11.70;;
16822;SDS011;8528;49.976;11.858;2024-02-26T05:51:21;26.07;;;11.50;;
16822;SDS011;8528;49.976;11.858;2024-02-26T05:53:48;24.17;;;11.73;;
16822;SDS011;8528;49.976;11.858;2024-02-26T05:56:21;29.07;;;12.40;;
16822;SDS011;8528;49.976;11.858;2024-02-26T05:58:48;27.47;;;12.87;;
16822;SDS011;8528;49.976;11.858;2024-02-26T06:01:16;22.97;;;11.67;;
16822;SDS011;8528;49.976;11.858;2024-02-26T06:03:44;24.97;;;13.23;;
16822;SDS011;8528;49.976;11.858;2024-02-26T06:06:11;24.07;;;12.50;;
16822;SDS011;8528;49.976;11.858;2024-02-26T06:08:38;25.63;;;12.30;;
16822;SDS011;8528;49.976;11.858;2024-02-26T06:11:06;30.70;;;13.20;;
16822;SDS011;8528;49.976;11.858;2024-02-26T06:13:34;26.73;;;11.87;;
16822;SDS011;8528;49.976;11.858;2024-02-26T06:16:01;23.83;;;11.87;;
16822;SDS011;8528;49.976;11.858;2024-02-26T06:18:28;24.50;;;12.37;;
16822;SDS011;8528;49.976;11.858;2024-02-26T06:20:56;24.70;;;11.73;;
16822;SDS011;8528;49.976;11.858;2024-02-26T06:23:23;25.33;;;12.27;;
16822;SDS011;8528;49.976;11.858;2024-02-26T06:25:49;26.37;;;12.03;;
16822;SDS011;8528;49.976;11.858;2024-02-26T06:28:16;26.73;;;12.10;;
16822;SDS011;8528;49.976;11.858;2024-02-26T06:30:43;25.67;;;12.97;;
16822;SDS011;8528;49.976;11.858;2024-02-26T06:33:10;27.67;;;13.40;;
16822;SDS011;8528;49.976;11.858;2024-02-26T06:35:38;25.47;;;13.77;;
16822;SDS011;8528;49.976;11.858;2024-02-26T06:38:05;27.07;;;13.40;;
16822;SDS011;8528;49.976;11.858;2024-02-26T06:40:31;26.47;;;13.27;;
16822;SDS011;8528;49.976;11.858;2024-02-26T06:42:58;22.97;;;11.43;;
16822;SDS011;8528;49.976;11.858;2024-02-26T06:45:25;22.80;;;12.07;;
16822;SDS011;8528;49.976;11.858;2024-02-26T06:47:52;25.30;;;12.30;;
16822;SDS011;8528;49.976;11.858;2024-02-26T06:50:19;24.07;;;11.73;;
16822;SDS011;8528;49.976;11.858;2024-02-26T06:52:46;24.23;;;12.80;;
16822;SDS011;8528;49.976;11.858;2024-02-26T06:55:13;23.03;;;11.97;;
16822;SDS011;8528;49.976;11.858;2024-02-26T06:57:40;22.10;;;12.50;;
16822;SDS011;8528;49.976;11.858;2024-02-26T07:00:07;21.03;;;11.60;;
16822;SDS011;8528;49.976;11.858;2024-02-26T07:02:35;23.70;;;12.63;;
16822;SDS011;8528;49.976;11.858;2024-02-26T07:05:05;20.50;;;11.40;;
16822;SDS011;8528;49.976;11.858;2024-02-26T07:07:32;21.13;;;11.73;;
16822;SDS011;8528;49.976;11.858;2024-02-26T07:09:59;19.27;;;11.40;;
16822;SDS011;8528;49.976;11.858;2024-02-26T07:12:26;19.97;;;11.90;;
16822;SDS011;8528;49.976;11.858;2024-02-26T07:14:53;19.53;;;11.27;;
16822;SDS011;8528;49.976;11.858;2024-02-26T07:17:20;21.77;;;12.13;;
16822;SDS011;8528;49.976;11.858;2024-02-26T07:19:47;18.30;;;11.63;;
16822;SDS011;8528;49.976;11.858;2024-02-26T07:22:14;19.10;;;12.07;;
16822;SDS011;8528;49.976;11.858;2024-02-26T07:24:41;21.43;;;12.07;;
16822;SDS011;8528;49.976;11.858;2024-02-26T07:27:07;18.47;;;10.90;;
16822;SDS011;8528;49.976;11.858;2024-02-26T07:29:35;17.33;;;11.00;;
16822;SDS011;8528;49.976;11.858;2024-02-26T07:32:01;16.43;;;10.70;;
16822;SDS011;8528;49.976;11.858;2024-02-26T07:34:28;15.77;;;10.10;;
16822;SDS011;8528;49.976;11.858;2024-02-26T07:36:56;17.00;;;11.23;;
16822;SDS011;8528;49.976;11.858;2024-02-26T07:39:23;16.70;;;10.83;;
16822;SDS011;8528;49.976;11.858;2024-02-26T07:41:50;15.30;;;10.10;;
16822;SDS011;8528;49.976;11.858;2024-02-26T07:44:19;14.07;;;10.13;;
16822;SDS011;8528;49.976;11.858;2024-02-26T07:46:46;14.03;;;9.80;;
16822;SDS011;8528;49.976;11.858;2024-02-26T07:49:13;14.07;;;9.90;;
16822;SDS011;8528;49.976;11.858;2024-02-26T07:51:40;14.33;;;10.13;;
16822;SDS011;8528;49.976;11.858;2024-02-26T07:54:07;14.60;;;10.47;;
16822;SDS011;8528;49.976;11.858;2024-02-26T07:56:34;14.43;;;10.43;;
16822;SDS011;8528;49.976;11.858;2024-02-26T07:59:01;13.97;;;9.63;;
16822;SDS011;8528;49.976;11.858;2024-02-26T08:01:28;14.47;;;10.03;;
16822;SDS011;8528;49.976;11.858;2024-02-26T08:03:54;13.57;;;9.50;;
16822;SDS011;8528;49.976;11.858;2024-02-26T08:06:22;12.30;;;9.67;;
16822;SDS011;8528;49.976;11.858;2024-02-26T08:08:49;12.53;;;9.13;;
16822;SDS011;8528;49.976;11.858;2024-02-26T08:11:17;12.30;;;9.30;;
16822;SDS011;8528;49.976;11.858;2024-02-26T08:13:43;12.07;;;8.60;;
16822;SDS011;8528;49.976;11.858;2024-02-26T08:16:10;10.93;;;8.80;;
16822;SDS011;8528;49.976;11.858;2024-02-26T08:18:38;10.53;;;8.23;;
16822;SDS011;8528;49.976;11.858;2024-02-26T08:21:05;9.53;;;8.07;;
16822;SDS011;8528;49.976;11.858;2024-02-26T08:23:32;9.50;;;8.13;;
16822;SDS011;8528;49.976;11.858;2024-02-26T08:25:59;10.23;;;8.20;;
16822;SDS011;8528;49.976;11.858;2024-02-26T08:28:25;9.17;;;7.20;;
16822;SDS011;8528;49.976;11.858;2024-02-26T08:30:52;7.93;;;6.97;;
16822;SDS011;8528;49.976;11.858;2024-02-26T08:33:19;8.17;;;6.83;;
16822;SDS011;8528;49.976;11.858;2024-02-26T08:35:46;10.17;;;8.03;;
16822;SDS011;8528;49.976;11.858;2024-02-26T08:38:13;8.83;;;7.63;;
16822;SDS011;8528;49.976;11.858;2024-02-26T08:40:41;8.23;;;7.33;;
16822;SDS011;8528;49.976;11.858;2024-02-26T08:43:08;8.50;;;7.43;;
16822;SDS011;8528;49.976;11.858;2024-02-26T08:45:35;9.20;;;7.40;;
16822;SDS011;8528;49.976;11.858;2024-02-26T08:48:03;8.57;;;7.30;;
16822;SDS011;8528;49.976;11.858;2024-02-26T08:50:30;8.53;;;7.63;;
16822;SDS011;8528;49.976;11.858;2024-02-26T08:52:57;8.30;;;7.20;;
16822;SDS011;8528;49.976;11.858;2024-02-26T08:55:24;9.10;;;6.83;;
16822;SDS011;8528;49.976;11.858;2024-02-26T08:57:51;7.43;;;6.53;;
16822;SDS011;8528;49.976;11.858;2024-02-26T09:00:18;7.67;;;6.97;;
16822;SDS011;8528;49.976;11.858;2024-02-26T09:02:48;8.73;;;7.40;;
16822;SDS011;8528;49.976;11.858;2024-02-26T09:05:16;8.23;;;7.33;;
16822;SDS011;8528;49.976;11.858;2024-02-26T09:07:43;7.63;;;6.60;;
16822;SDS011;8528;49.976;11.858;2024-02-26T09:10:10;7.90;;;7.10;;
16822;SDS011;8528;49.976;11.858;2024-02-26T09:12:37;6.93;;;6.23;;
16822;SDS011;8528;49.976;11.858;2024-02-26T09:15:06;6.50;;;5.80;;
16822;SDS011;8528;49.976;11.858;2024-02-26T09:17:33;6.70;;;5.77;;
16822;SDS011;8528;49.976;11.858;2024-02-26T09:20:01;6.00;;;5.40;;
16822;SDS011;8528;49.976;11.858;2024-02-26T09:22:29;6.43;;;5.22;;
16822;SDS011;8528;49.976;11.858;2024-02-26T09:24:56;6.05;;;5.35;;
16822;SDS011;8528;49.976;11.858;2024-02-26T09:27:22;6.17;;;5.57;;
16822;SDS011;8528;49.976;11.858;2024-02-26T09:29:50;6.65;;;5.53;;
16822;SDS011;8528;49.976;11.858;2024-02-26T09:32:17;5.93;;;5.32;;
16822;SDS011;8528;49.976;11.858;2024-02-26T09:34:44;6.20;;;5.60;;
16822;SDS011;8528;49.976;11.858;2024-02-26T09:37:11;7.03;;;6.33;;
16822;SDS011;8528;49.976;11.858;2024-02-26T09:39:47;7.23;;;6.53;;
16822;SDS011;8528;49.976;11.858;2024-02-26T09:42:14;7.70;;;6.90;;
16822;SDS011;8528;49.976;11.858;2024-02-26T09:44:45;7.40;;;6.70;;
16822;SDS011;8528;49.976;11.858;2024-02-26T09:47:14;8.40;;;7.50;;
16822;SDS011;8528;49.976;11.858;2024-02-26T09:49:43;7.10;;;6.40;;
16822;SDS011;8528;49.976;11.858;2024-02-26T09:52:10;7.07;;;6.17;;
16822;SDS011;8528;49.976;11.858;2024-02-26T09:54:38;7.67;;;6.30;;
16822;SDS011;8528;49.976;11.858;2024-02-26T09:57:05;7.60;;;6.60;;
16822;SDS011;8528;49.976;11.858;2024-02-26T09:59:41;7.03;;;6.33;;
16822;SDS011;8528;49.976;11.858;2024-02-26T10:02:13;7.17;;;6.33;;
16822;SDS011;8528;49.976;11.858;2024-02-26T10:04:40;8.30;;;7.23;;
16822;SDS011;8528;49.976;11.858;2024-02-26T10:07:13;8.10;;;7.13;;
16822;SDS011;8528;49.976;11.858;2024-02-26T10:09:40;10.50;;;7.40;;
16822;SDS011;8528;49.976;11.858;2024-02-26T10:12:08;8.10;;;7.30;;
16822;SDS011;8528;49.976;11.858;2024-02-26T10:14:37;8.60;;;7.00;;
16822;SDS011;8528;49.976;11.858;2024-02-26T10:17:07;9.73;;;6.77;;
16822;SDS011;8528;49.976;11.858;2024-02-26T10:19:35;6.87;;;5.93;;
16822;SDS011;8528;49.976;11.858;2024-02-26T10:22:04;5.70;;;5.03;;
16822;SDS011;8528;49.976;11.858;2024-02-26T10:24:32;5.90;;;4.73;;
16822;SDS011;8528;49.976;11.858;2024-02-26T10:27:01;6.73;;;5.47;;
16822;SDS011;8528;49.976;11.858;2024-02-26T10:29:28;6.33;;;5.50;;
16822;SDS011;8528;49.976;11.858;2024-02-26T10:31:55;7.03;;;4.97;;
16822;SDS011;8528;49.976;11.858;2024-02-26T10:34:22;6.10;;;5.00;;
16822;SDS011;8528;49.976;11.858;2024-02-26T10:36:50;6.00;;;4.97;;
16822;SDS011;8528;49.976;11.858;2024-02-26T10:39:20;6.20;;;5.33;;
16822;SDS011;8528;49.976;11.858;2024-02-26T10:41:48;5.60;;;4.80;;
16822;SDS011;8528;49.976;11.858;2024-02-26T10:44:15;7.27;;;5.17;;
16822;SDS011;8528;49.976;11.858;2024-02-26T10:46:46;6.10;;;5.20;;
16822;SDS011;8528;49.976;11.858;2024-02-26T10:49:16;6.33;;;5.63;;
16822;SDS011;8528;49.976;11.858;2024-02-26T10:51:50;8.20;;;6.20;;
16822;SDS011;8528;49.976;11.858;2024-02-26T10:54:22;7.10;;;5.30;;
16822;SDS011;8528;49.976;11.858;2024-02-26T10:56:52;6.30;;;5.70;;
16822;SDS011;8528;49.976;11.858;2024-02-26T10:59:22;7.25;;;5.63;;
16822;SDS011;8528;49.976;11.858;2024-02-26T11:01:49;7.65;;;6.50;;
16822;SDS011;8528;49.976;11.858;2024-02-26T11:04:17;7.17;;;5.40;;
16822;SDS011;8528;49.976;11.858;2024-02-26T11:06:45;6.05;;;5.45;;
16822;SDS011;8528;49.976;11.858;2024-02-26T11:09:14;6.80;;;5.47;;
16822;SDS011;8528;49.976;11.858;2024-02-26T11:11:42;6.65;;;5.95;;
16822;SDS011;8528;49.976;11.858;2024-02-26T11:14:09;6.95;;;5.75;;
16822;SDS011;8528;49.976;11.858;2024-02-26T11:16:36;5.67;;;5.07;;
16822;SDS011;8528;49.976;11.858;2024-02-26T11:19:05;6.80;;;4.70;;
16822;SDS011;8528;49.976;11.858;2024-02-26T11:21:35;5.83;;;5.13;;
16822;SDS011;8528;49.976;11.858;2024-02-26T11:24:07;5.83;;;4.50;;
16822;SDS011;8528;49.976;11.858;2024-02-26T11:26:38;4.50;;;4.10;;
16822;SDS011;8528;49.976;11.858;2024-02-26T11:29:12;5.93;;;5.37;;
16822;SDS011;8528;49.976;11.858;2024-02-26T11:31:42;6.87;;;5.60;;
16822;SDS011;8528;49.976;11.858;2024-02-26T11:34:09;6.90;;;5.90;;
16822;SDS011;8528;49.976;11.858;2024-02-26T11:36:37;6.23;;;4.50;;
16822;SDS011;8528;49.976;11.858;2024-02-26T11:39:06;6.13;;;4.90;;
16822;SDS011;8528;49.976;11.858;2024-02-26T11:41:33;9.20;;;4.90;;
16822;SDS011;8528;49.976;11.858;2024-02-26T11:44:03;5.90;;;5.20;;
16822;SDS011;8528;49.976;11.858;2024-02-26T11:46:42;5.60;;;4.90;;
16822;SDS011;8528;49.976;11.858;2024-02-26T11:51:55;7.27;;;6.03;;
16822;SDS011;8528;49.976;11.858;2024-02-26T11:59:47;7.13;;;5.53;;
16822;SDS011;8528;49.976;11.858;2024-02-26T12:02:37;9.97;;;6.37;;
16822;SDS011;8528;49.976;11.858;2024-02-26T12:05:15;9.30;;;5.67;;
16822;SDS011;8528;49.976;11.858;2024-02-26T12:07:44;7.77;;;5.87;;
16822;SDS011;8528;49.976;11.858;2024-02-26T12:12:58;8.77;;;6.10;;
16822;SDS011;8528;49.976;11.858;2024-02-26T12:15:30;7.67;;;6.70;;
16822;SDS011;8528;49.976;11.858;2024-02-26T12:18:03;9.30;;;6.10;;
16822;SDS011;8528;49.976;11.858;2024-02-26T12:20:31;8.20;;;6.10;;
16822;SDS011;8528;49.976;11.858;2024-02-26T12:22:58;8.13;;;6.53;;
16822;SDS011;8528;49.976;11.858;2024-02-26T12:25:26;7.23;;;6.17;;
16822;SDS011;8528;49.976;11.858;2024-02-26T12:27:54;13.90;;;6.83;;
16822;SDS011;8528;49.976;11.858;2024-02-26T12:30:21;8.03;;;5.93;;
16822;SDS011;8528;49.976;11.858;2024-02-26T12:32:49;7.63;;;5.73;;
16822;SDS011;8528;49.976;11.858;2024-02-26T12:35:17;6.93;;;5.83;;
16822;SDS011;8528;49.976;11.858;2024-02-26T12:37:44;7.10;;;5.77;;
16822;SDS011;8528;49.976;11.858;2024-02-26T12:40:12;7.47;;;5.40;;
16822;SDS011;8528;49.976;11.858;2024-02-26T12:42:40;7.80;;;5.67;;
16822;SDS011;8528;49.976;11.858;2024-02-26T12:45:10;6.80;;;5.10;;
16822;SDS011;8528;49.976;11.858;2024-02-26T12:47:38;6.53;;;4.93;;
16822;SDS011;8528;49.976;11.858;2024-02-26T12:50:06;7.33;;;5.33;;
16822;SDS011;8528;49.976;11.858;2024-02-26T12:52:36;5.97;;;5.07;;
16822;SDS011;8528;49.976;11.858;2024-02-26T12:55:06;5.73;;;5.13;;
16822;SDS011;8528;49.976;11.858;2024-02-26T12:57:39;6.00;;;5.40;;
16822;SDS011;8528;49.976;11.858;2024-02-26T13:00:10;6.53;;;5.30;;
16822;SDS011;8528;49.976;11.858;2024-02-26T13:02:41;6.13;;;4.30;;
16822;SDS011;8528;49.976;11.858;2024-02-26T13:05:11;5.30;;;4.33;;
16822;SDS011;8528;49.976;11.858;2024-02-26T13:07:46;5.37;;;4.27;;
16822;SDS011;8528;49.976;11.858;2024-02-26T13:10:17;5.37;;;4.83;;
16822;SDS011;8528;49.976;11.858;2024-02-26T13:12:49;6.47;;;4.53;;
16822;SDS011;8528;49.976;11.858;2024-02-26T13:15:17;5.80;;;4.47;;
16822;SDS011;8528;49.976;11.858;2024-02-26T13:17:46;4.53;;;4.03;;
16822;SDS011;8528;49.976;11.858;2024-02-26T13:20:33;4.67;;;3.93;;
16822;SDS011;8528;49.976;11.858;2024-02-26T13:23:01;5.93;;;4.33;;
16822;SDS011;8528;49.976;11.858;2024-02-26T13:25:33;5.27;;;4.57;;
16822;SDS011;8528;49.976;11.858;2024-02-26T13:28:14;5.10;;;4.17;;
16822;SDS011;8528;49.976;11.858;2024-02-26T13:30:52;8.23;;;4.90;;
16822;SDS011;8528;49.976;11.858;2024-02-26T13:33:22;5.50;;;4.00;;
16822;SDS011;8528;49.976;11.858;2024-02-26T13:35:50;5.40;;;4.10;;
16822;SDS011;8528;49.976;11.858;2024-02-26T13:38:18;7.27;;;4.57;;
16822;SDS011;8528;49.976;11.858;2024-02-26T13:40:45;8.10;;;4.73;;
16822;SDS011;8528;49.976;11.858;2024-02-26T13:43:11;6.13;;;4.20;;
16822;SDS011;8528;49.976;11.858;2024-02-26T13:45:38;4.70;;;4.20;;
16822;SDS011;8528;49.976;11.858;2024-02-26T13:48:06;5.77;;;4.60;;
16822;SDS011;8528;49.976;11.858;2024-02-26T13:50:37;10.40;;;6.33;;
16822;SDS011;8528;49.976;11.858;2024-02-26T13:53:04;11.40;;;7.87;;
16822;SDS011;8528;49.976;11.858;2024-02-26T13:55:32;12.00;;;8.90;;
16822;SDS011;8528;49.976;11.858;2024-02-26T13:57:59;7.70;;;5.70;;
16822;SDS011;8528;49.976;11.858;2024-02-26T14:00:29;6.90;;;5.57;;
16822;SDS011;8528;49.976;11.858;2024-02-26T14:03:01;7.17;;;5.20;;
16822;SDS011;8528;49.976;11.858;2024-02-26T14:05:29;7.30;;;5.80;;
16822;SDS011;8528;49.976;11.858;2024-02-26T14:07:56;11.20;;;5.70;;
16822;SDS011;8528;49.976;11.858;2024-02-26T14:10:23;9.30;;;5.97;;
16822;SDS011;8528;49.976;11.858;2024-02-26T14:12:51;8.43;;;5.00;;
16822;SDS011;8528;49.976;11.858;2024-02-26T14:15:17;6.00;;;4.87;;
16822;SDS011;8528;49.976;11.858;2024-02-26T14:17:44;10.80;;;5.53;;
16822;SDS011;8528;49.976;11.858;2024-02-26T14:20:12;7.60;;;5.40;;
16822;SDS011;8528;49.976;11.858;2024-02-26T14:22:39;5.50;;;4.87;;
16822;SDS011;8528;49.976;11.858;2024-02-26T14:25:06;6.80;;;5.30;;
16822;SDS011;8528;49.976;11.858;2024-02-26T14:27:35;8.27;;;5.87;;
16822;SDS011;8528;49.976;11.858;2024-02-26T14:30:02;7.47;;;5.10;;
16822;SDS011;8528;49.976;11.858;2024-02-26T14:32:29;5.70;;;4.60;;
16822;SDS011;8528;49.976;11.858;2024-02-26T14:35:01;5.40;;;4.43;;
16822;SDS011;8528;49.976;11.858;2024-02-26T14:37:29;7.67;;;4.47;;
16822;SDS011;8528;49.976;11.858;2024-02-26T14:39:56;6.57;;;4.87;;
16822;SDS011;8528;49.976;11.858;2024-02-26T14:42:22;7.70;;;4.63;;
16822;SDS011;8528;49.976;11.858;2024-02-26T14:44:51;4.97;;;3.80;;
16822;SDS011;8528;49.976;11.858;2024-02-26T14:47:18;4.33;;;3.33;;
16822;SDS011;8528;49.976;11.858;2024-02-26T14:49:44;3.50;;;3.13;;
16822;SDS011;8528;49.976;11.858;2024-02-26T14:52:14;3.97;;;3.13;;